sensor_id;sensor_type;location;lat;lon;timestamp;temperature;humidity
12452;DHT22;6291;48.924;12.204;2023-06-04T00:01:34;14.40;99.90
12452;DHT22;6291;48.924;12.204;2023-06-04T00:06:39;14.40;99.90
12452;DHT22;6291;48.924;12.204;2023-06-04T00:11:43;14.10;99.90
12452;DHT22;6291;48.924;12.204;2023-06-04T00:16:47;14.20;99.90
12452;DHT22;6291;48.924;12.204;2023-06-04T00:21:52;13.90;99.90
12452;DHT22;6291;48.924;12.204;2023-06-04T00:26:55;13.80;99.90
12452;DHT22;6291;48.924;12.204;2023-06-04T00:31:59;13.70;99.90
12452;DHT22;6291;48.924;12.204;2023-06-04T00:37:04;13.60;99.90
12452;DHT22;6291;48.924;12.204;2023-06-04T00:42:08;13.50;99.90
12452;DHT22;6291;48.924;12.204;2023-06-04T00:47:11;13.40;99.90
12452;DHT22;6291;48.924;12.204;2023-06-04T00:52:16;13.30;99.90
12452;DHT22;6291;48.924;12.204;2023-06-04T00:57:20;13.20;99.90
12452;DHT22;6291;48.924;12.204;2023-06-04T01:02:25;13.20;99.90
12452;DHT22;6291;48.924;12.204;2023-06-04T01:07:31;13.00;99.90
12452;DHT22;6291;48.924;12.204;2023-06-04T01:12:34;13.10;99.90
12452;DHT22;6291;48.924;12.204;2023-06-04T01:17:40;13.10;99.90
12452;DHT22;6291;48.924;12.204;2023-06-04T01:22:54;13.10;99.90
12452;DHT22;6291;48.924;12.204;2023-06-04T01:28:04;12.90;99.90
12452;DHT22;6291;48.924;12.204;2023-06-04T01:33:11;12.90;99.90
12452;DHT22;6291;48.924;12.204;2023-06-04T01:38:16;12.80;99.90
12452;DHT22;6291;48.924;12.204;2023-06-04T01:43:19;12.80;99.90
12452;DHT22;6291;48.924;12.204;2023-06-04T01:48:23;12.70;99.90
12452;DHT22;6291;48.924;12.204;2023-06-04T01:53:28;12.50;99.90
12452;DHT22;6291;48.924;12.204;2023-06-04T01:58:31;12.60;99.90
12452;DHT22;6291;48.924;12.204;2023-06-04T02:03:36;17.20;99.90
12452;DHT22;6291;48.924;12.204;2023-06-04T02:08:44;12.50;99.90
12452;DHT22;6291;48.924;12.204;2023-06-04T02:13:47;12.50;99.90
12452;DHT22;6291;48.924;12.204;2023-06-04T02:18:50;12.60;99.90
12452;DHT22;6291;48.924;12.204;2023-06-04T02:23:55;12.40;99.90
12452;DHT22;6291;48.924;12.204;2023-06-04T02:28:59;12.30;99.90
12452;DHT22;6291;48.924;12.204;2023-06-04T02:34:03;12.10;99.90
12452;DHT22;6291;48.924;12.204;2023-06-04T02:39:08;12.00;99.90
12452;DHT22;6291;48.924;12.204;2023-06-04T02:44:12;12.10;99.90
12452;DHT22;6291;48.924;12.204;2023-06-04T02:49:15;12.10;99.90
12452;DHT22;6291;48.924;12.204;2023-06-04T02:54:20;12.10;99.90
12452;DHT22;6291;48.924;12.204;2023-06-04T02:59:23;11.90;99.90
12452;DHT22;6291;48.924;12.204;2023-06-04T03:04:27;11.80;99.90
12452;DHT22;6291;48.924;12.204;2023-06-04T03:09:37;11.80;99.90
12452;DHT22;6291;48.924;12.204;2023-06-04T03:14:40;11.80;99.90
12452;DHT22;6291;48.924;12.204;2023-06-04T03:19:44;11.70;99.90
12452;DHT22;6291;48.924;12.204;2023-06-04T03:24:48;11.70;99.90
12452;DHT22;6291;48.924;12.204;2023-06-04T03:29:52;11.50;99.90
12452;DHT22;6291;48.924;12.204;2023-06-04T03:34:55;11.50;99.90
12452;DHT22;6291;48.924;12.204;2023-06-04T03:40:00;11.60;99.90
12452;DHT22;6291;48.924;12.204;2023-06-04T03:45:11;8.00;99.90
12452;DHT22;6291;48.924;12.204;2023-06-04T03:50:14;11.50;99.90
12452;DHT22;6291;48.924;12.204;2023-06-04T03:55:19;11.60;99.90
12452;DHT22;6291;48.924;12.204;2023-06-04T04:00:24;11.50;99.90
12452;DHT22;6291;48.924;12.204;2023-06-04T04:05:31;11.50;99.90
12452;DHT22;6291;48.924;12.204;2023-06-04T04:10:36;11.50;99.90
12452;DHT22;6291;48.924;12.204;2023-06-04T04:15:40;11.50;99.90
12452;DHT22;6291;48.924;12.204;2023-06-04T04:20:43;11.50;99.90
12452;DHT22;6291;48.924;12.204;2023-06-04T04:25:49;11.50;99.90
12452;DHT22;6291;48.924;12.204;2023-06-04T04:30:53;11.40;99.90
12452;DHT22;6291;48.924;12.204;2023-06-04T04:35:58;11.50;99.90
12452;DHT22;6291;48.924;12.204;2023-06-04T04:41:04;11.70;99.90
12452;DHT22;6291;48.924;12.204;2023-06-04T04:46:12;11.90;99.90
12452;DHT22;6291;48.924;12.204;2023-06-04T04:51:15;11.90;99.90
12452;DHT22;6291;48.924;12.204;2023-06-04T04:56:21;11.90;99.90
12452;DHT22;6291;48.924;12.204;2023-06-04T05:01:26;12.00;99.90
12452;DHT22;6291;48.924;12.204;2023-06-04T05:06:30;12.10;99.90
12452;DHT22;6291;48.924;12.204;2023-06-04T05:11:35;12.30;99.90
12452;DHT22;6291;48.924;12.204;2023-06-04T05:16:39;12.40;99.90
12452;DHT22;6291;48.924;12.204;2023-06-04T05:21:45;12.70;99.90
12452;DHT22;6291;48.924;12.204;2023-06-04T05:26:52;12.80;99.90
12452;DHT22;6291;48.924;12.204;2023-06-04T05:31:56;13.00;99.90
12452;DHT22;6291;48.924;12.204;2023-06-04T05:37:00;13.50;99.90
12452;DHT22;6291;48.924;12.204;2023-06-04T05:42:08;13.40;99.90
12452;DHT22;6291;48.924;12.204;2023-06-04T05:47:11;13.60;99.90
12452;DHT22;6291;48.924;12.204;2023-06-04T05:52:15;13.90;99.90
12452;DHT22;6291;48.924;12.204;2023-06-04T05:57:22;14.80;99.90
12452;DHT22;6291;48.924;12.204;2023-06-04T06:02:26;13.80;99.90
12452;DHT22;6291;48.924;12.204;2023-06-04T06:07:30;14.20;99.90
12452;DHT22;6291;48.924;12.204;2023-06-04T06:12:35;14.60;99.90
12452;DHT22;6291;48.924;12.204;2023-06-04T06:17:39;15.40;99.90
12452;DHT22;6291;48.924;12.204;2023-06-04T06:22:42;15.30;99.90
12452;DHT22;6291;48.924;12.204;2023-06-04T06:27:49;15.30;99.90
12452;DHT22;6291;48.924;12.204;2023-06-04T06:32:55;15.50;99.90
12452;DHT22;6291;48.924;12.204;2023-06-04T06:37:58;15.40;99.90
12452;DHT22;6291;48.924;12.204;2023-06-04T06:43:03;15.30;99.90
12452;DHT22;6291;48.924;12.204;2023-06-04T06:48:06;15.80;99.90
12452;DHT22;6291;48.924;12.204;2023-06-04T06:53:10;15.70;99.90
12452;DHT22;6291;48.924;12.204;2023-06-04T06:58:14;16.70;99.90
12452;DHT22;6291;48.924;12.204;2023-06-04T07:03:18;18.80;99.90
12452;DHT22;6291;48.924;12.204;2023-06-04T07:08:21;19.20;99.90
12452;DHT22;6291;48.924;12.204;2023-06-04T07:13:26;20.60;99.90
12452;DHT22;6291;48.924;12.204;2023-06-04T07:18:29;20.90;99.90
12452;DHT22;6291;48.924;12.204;2023-06-04T07:23:33;20.50;99.90
12452;DHT22;6291;48.924;12.204;2023-06-04T07:28:38;23.00;99.90
12452;DHT22;6291;48.924;12.204;2023-06-04T07:33:42;23.20;99.90
12452;DHT22;6291;48.924;12.204;2023-06-04T07:38:46;22.90;99.90
12452;DHT22;6291;48.924;12.204;2023-06-04T07:43:50;23.30;99.90
12452;DHT22;6291;48.924;12.204;2023-06-04T07:48:54;23.40;99.90
12452;DHT22;6291;48.924;12.204;2023-06-04T07:53:57;24.40;99.90
12452;DHT22;6291;48.924;12.204;2023-06-04T07:59:02;24.50;99.90
12452;DHT22;6291;48.924;12.204;2023-06-04T08:04:05;23.90;99.90
12452;DHT22;6291;48.924;12.204;2023-06-04T08:09:08;23.90;99.90
12452;DHT22;6291;48.924;12.204;2023-06-04T08:14:15;20.50;99.90
12452;DHT22;6291;48.924;12.204;2023-06-04T08:19:18;21.20;99.90
12452;DHT22;6291;48.924;12.204;2023-06-04T08:24:22;19.80;99.90
12452;DHT22;6291;48.924;12.204;2023-06-04T08:29:26;23.20;99.90
12452;DHT22;6291;48.924;12.204;2023-06-04T08:34:30;25.60;99.90
12452;DHT22;6291;48.924;12.204;2023-06-04T08:39:33;25.70;99.90
12452;DHT22;6291;48.924;12.204;2023-06-04T08:44:38;26.90;99.90
12452;DHT22;6291;48.924;12.204;2023-06-04T08:49:44;27.00;99.90
12452;DHT22;6291;48.924;12.204;2023-06-04T08:54:50;27.90;99.90
12452;DHT22;6291;48.924;12.204;2023-06-04T08:59:56;28.10;99.90
12452;DHT22;6291;48.924;12.204;2023-06-04T09:05:00;28.00;99.90
12452;DHT22;6291;48.924;12.204;2023-06-04T09:10:06;25.40;99.90
12452;DHT22;6291;48.924;12.204;2023-06-04T09:15:16;26.90;99.90
12452;DHT22;6291;48.924;12.204;2023-06-04T09:20:19;27.50;99.90
12452;DHT22;6291;48.924;12.204;2023-06-04T09:25:24;26.90;99.90
12452;DHT22;6291;48.924;12.204;2023-06-04T09:30:37;26.90;99.90
12452;DHT22;6291;48.924;12.204;2023-06-04T09:35:40;30.00;99.90
12452;DHT22;6291;48.924;12.204;2023-06-04T09:40:44;28.60;99.90
12452;DHT22;6291;48.924;12.204;2023-06-04T09:45:48;27.00;99.90
12452;DHT22;6291;48.924;12.204;2023-06-04T09:50:52;28.00;99.90
12452;DHT22;6291;48.924;12.204;2023-06-04T09:55:56;27.30;99.90
12452;DHT22;6291;48.924;12.204;2023-06-04T10:01:03;29.50;99.90
12452;DHT22;6291;48.924;12.204;2023-06-04T10:06:06;30.20;99.90
12452;DHT22;6291;48.924;12.204;2023-06-04T10:11:12;30.50;99.90
12452;DHT22;6291;48.924;12.204;2023-06-04T10:16:18;29.70;99.90
12452;DHT22;6291;48.924;12.204;2023-06-04T10:21:34;31.20;99.90
12452;DHT22;6291;48.924;12.204;2023-06-04T10:26:38;30.40;99.90
12452;DHT22;6291;48.924;12.204;2023-06-04T10:31:44;30.30;99.90
12452;DHT22;6291;48.924;12.204;2023-06-04T10:36:47;30.50;99.90
12452;DHT22;6291;48.924;12.204;2023-06-04T10:42:00;31.40;99.90
12452;DHT22;6291;48.924;12.204;2023-06-04T10:47:06;32.00;99.90
12452;DHT22;6291;48.924;12.204;2023-06-04T10:52:10;30.80;99.90
12452;DHT22;6291;48.924;12.204;2023-06-04T10:57:16;30.00;99.90
12452;DHT22;6291;48.924;12.204;2023-06-04T11:02:21;31.20;99.90
12452;DHT22;6291;48.924;12.204;2023-06-04T11:07:25;30.70;99.90
12452;DHT22;6291;48.924;12.204;2023-06-04T11:12:28;30.90;99.90
12452;DHT22;6291;48.924;12.204;2023-06-04T11:17:33;29.90;99.90
12452;DHT22;6291;48.924;12.204;2023-06-04T11:22:38;28.20;99.90
12452;DHT22;6291;48.924;12.204;2023-06-04T11:27:41;30.60;99.90
12452;DHT22;6291;48.924;12.204;2023-06-04T11:32:46;31.40;99.90
12452;DHT22;6291;48.924;12.204;2023-06-04T11:37:54;28.80;99.90
12452;DHT22;6291;48.924;12.204;2023-06-04T11:42:57;29.70;99.90
12452;DHT22;6291;48.924;12.204;2023-06-04T11:48:04;32.00;99.90
12452;DHT22;6291;48.924;12.204;2023-06-04T11:53:08;33.70;99.90
12452;DHT22;6291;48.924;12.204;2023-06-04T11:58:12;31.70;99.90
12452;DHT22;6291;48.924;12.204;2023-06-04T12:03:17;31.90;99.90
12452;DHT22;6291;48.924;12.204;2023-06-04T12:08:21;27.90;99.90
12452;DHT22;6291;48.924;12.204;2023-06-04T12:13:24;30.90;99.90
12452;DHT22;6291;48.924;12.204;2023-06-04T12:18:29;31.60;99.90
12452;DHT22;6291;48.924;12.204;2023-06-04T12:23:32;30.40;99.90
12452;DHT22;6291;48.924;12.204;2023-06-04T12:28:35;32.10;99.90
12452;DHT22;6291;48.924;12.204;2023-06-04T12:33:41;30.90;99.90
12452;DHT22;6291;48.924;12.204;2023-06-04T12:38:44;29.60;99.90
12452;DHT22;6291;48.924;12.204;2023-06-04T12:43:49;28.80;99.90
12452;DHT22;6291;48.924;12.204;2023-06-04T12:48:55;25.00;99.90
12452;DHT22;6291;48.924;12.204;2023-06-04T12:53:58;25.60;99.90
12452;DHT22;6291;48.924;12.204;2023-06-04T12:59:08;27.90;99.90
12452;DHT22;6291;48.924;12.204;2023-06-04T13:04:13;28.10;99.90
12452;DHT22;6291;48.924;12.204;2023-06-04T13:09:17;25.10;99.90
12452;DHT22;6291;48.924;12.204;2023-06-04T13:14:22;25.00;99.90
12452;DHT22;6291;48.924;12.204;2023-06-04T13:19:28;25.10;99.90
12452;DHT22;6291;48.924;12.204;2023-06-04T13:24:31;26.50;99.90
12452;DHT22;6291;48.924;12.204;2023-06-04T13:29:35;27.10;99.90
12452;DHT22;6291;48.924;12.204;2023-06-04T13:34:40;27.30;99.90
12452;DHT22;6291;48.924;12.204;2023-06-04T13:39:44;27.40;99.90
12452;DHT22;6291;48.924;12.204;2023-06-04T13:44:47;26.70;99.90
12452;DHT22;6291;48.924;12.204;2023-06-04T13:49:52;26.30;99.90
12452;DHT22;6291;48.924;12.204;2023-06-04T13:54:56;26.70;99.90
12452;DHT22;6291;48.924;12.204;2023-06-04T14:00:00;27.20;99.90
12452;DHT22;6291;48.924;12.204;2023-06-04T14:05:07;27.00;99.90
12452;DHT22;6291;48.924;12.204;2023-06-04T14:10:11;26.80;99.90
12452;DHT22;6291;48.924;12.204;2023-06-04T14:15:15;26.20;99.90
12452;DHT22;6291;48.924;12.204;2023-06-04T14:20:20;26.20;99.90
12452;DHT22;6291;48.924;12.204;2023-06-04T14:25:24;26.30;99.90
12452;DHT22;6291;48.924;12.204;2023-06-04T14:30:28;26.20;99.90
12452;DHT22;6291;48.924;12.204;2023-06-04T14:35:33;26.10;99.90
12452;DHT22;6291;48.924;12.204;2023-06-04T14:40:37;26.50;99.90
12452;DHT22;6291;48.924;12.204;2023-06-04T14:45:40;26.80;99.90
12452;DHT22;6291;48.924;12.204;2023-06-04T14:50:45;27.30;99.90
12452;DHT22;6291;48.924;12.204;2023-06-04T14:55:49;27.40;99.90
12452;DHT22;6291;48.924;12.204;2023-06-04T15:00:53;27.50;99.90
12452;DHT22;6291;48.924;12.204;2023-06-04T15:06:04;26.40;99.90
12452;DHT22;6291;48.924;12.204;2023-06-04T15:11:20;25.40;99.90
12452;DHT22;6291;48.924;12.204;2023-06-04T15:16:24;25.80;99.90
12452;DHT22;6291;48.924;12.204;2023-06-04T15:21:29;25.30;99.90
12452;DHT22;6291;48.924;12.204;2023-06-04T15:26:32;26.00;99.90
12452;DHT22;6291;48.924;12.204;2023-06-04T15:31:36;26.40;99.90
12452;DHT22;6291;48.924;12.204;2023-06-04T15:36:41;26.40;99.90
12452;DHT22;6291;48.924;12.204;2023-06-04T15:41:44;26.10;99.90
12452;DHT22;6291;48.924;12.204;2023-06-04T15:46:48;26.10;99.90
12452;DHT22;6291;48.924;12.204;2023-06-04T15:51:53;25.70;99.90
12452;DHT22;6291;48.924;12.204;2023-06-04T15:56:57;25.70;99.90
12452;DHT22;6291;48.924;12.204;2023-06-04T16:02:01;25.80;99.90
12452;DHT22;6291;48.924;12.204;2023-06-04T16:07:05;24.40;99.90
12452;DHT22;6291;48.924;12.204;2023-06-04T16:12:09;25.70;99.90
12452;DHT22;6291;48.924;12.204;2023-06-04T16:17:12;25.40;99.90
12452;DHT22;6291;48.924;12.204;2023-06-04T16:22:17;25.40;99.90
12452;DHT22;6291;48.924;12.204;2023-06-04T16:27:23;25.30;99.90
12452;DHT22;6291;48.924;12.204;2023-06-04T16:32:26;25.10;99.90
12452;DHT22;6291;48.924;12.204;2023-06-04T16:37:32;24.90;99.90
12452;DHT22;6291;48.924;12.204;2023-06-04T16:42:36;24.80;99.90
12452;DHT22;6291;48.924;12.204;2023-06-04T16:47:39;24.60;99.90
12452;DHT22;6291;48.924;12.204;2023-06-04T16:52:46;24.60;99.90
12452;DHT22;6291;48.924;12.204;2023-06-04T16:57:49;24.40;99.90
12452;DHT22;6291;48.924;12.204;2023-06-04T17:02:54;24.30;99.90
12452;DHT22;6291;48.924;12.204;2023-06-04T17:08:00;24.50;99.90
12452;DHT22;6291;48.924;12.204;2023-06-04T17:13:04;24.20;99.90
12452;DHT22;6291;48.924;12.204;2023-06-04T17:18:08;24.00;99.90
12452;DHT22;6291;48.924;12.204;2023-06-04T17:23:22;23.80;99.90
12452;DHT22;6291;48.924;12.204;2023-06-04T17:28:25;23.70;99.90
12452;DHT22;6291;48.924;12.204;2023-06-04T17:33:29;23.50;99.90
12452;DHT22;6291;48.924;12.204;2023-06-04T17:38:37;23.30;99.90
12452;DHT22;6291;48.924;12.204;2023-06-04T17:43:41;23.10;99.90
12452;DHT22;6291;48.924;12.204;2023-06-04T17:48:44;23.00;99.90
12452;DHT22;6291;48.924;12.204;2023-06-04T17:53:49;18.00;99.90
12452;DHT22;6291;48.924;12.204;2023-06-04T17:58:53;22.70;99.90
12452;DHT22;6291;48.924;12.204;2023-06-04T18:03:57;22.50;99.90
12452;DHT22;6291;48.924;12.204;2023-06-04T18:09:02;22.40;99.90
12452;DHT22;6291;48.924;12.204;2023-06-04T18:14:06;22.30;99.90
12452;DHT22;6291;48.924;12.204;2023-06-04T18:19:11;22.20;99.90
12452;DHT22;6291;48.924;12.204;2023-06-04T18:24:17;22.20;99.90
12452;DHT22;6291;48.924;12.204;2023-06-04T18:29:20;24.20;99.90
12452;DHT22;6291;48.924;12.204;2023-06-04T18:34:24;21.90;99.90
12452;DHT22;6291;48.924;12.204;2023-06-04T18:39:30;21.80;99.90
12452;DHT22;6291;48.924;12.204;2023-06-04T18:44:33;21.70;99.90
12452;DHT22;6291;48.924;12.204;2023-06-04T18:49:37;21.40;99.90
12452;DHT22;6291;48.924;12.204;2023-06-04T18:54:41;21.30;99.90
12452;DHT22;6291;48.924;12.204;2023-06-04T18:59:46;21.10;99.90
12452;DHT22;6291;48.924;12.204;2023-06-04T19:04:50;24.70;99.90
12452;DHT22;6291;48.924;12.204;2023-06-04T19:09:55;21.10;99.90
12452;DHT22;6291;48.924;12.204;2023-06-04T19:14:58;21.00;99.90
12452;DHT22;6291;48.924;12.204;2023-06-04T19:20:02;20.90;99.90
12452;DHT22;6291;48.924;12.204;2023-06-04T19:25:08;20.70;99.90
12452;DHT22;6291;48.924;12.204;2023-06-04T19:30:11;20.60;99.90
12452;DHT22;6291;48.924;12.204;2023-06-04T19:35:15;20.50;99.90
12452;DHT22;6291;48.924;12.204;2023-06-04T19:40:20;20.50;99.90
12452;DHT22;6291;48.924;12.204;2023-06-04T19:45:24;24.60;99.90
12452;DHT22;6291;48.924;12.204;2023-06-04T19:50:28;20.30;99.90
12452;DHT22;6291;48.924;12.204;2023-06-04T19:55:33;23.20;99.90
12452;DHT22;6291;48.924;12.204;2023-06-04T20:00:36;20.20;99.90
12452;DHT22;6291;48.924;12.204;2023-06-04T20:05:40;20.20;99.90
12452;DHT22;6291;48.924;12.204;2023-06-04T20:10:46;20.00;99.90
12452;DHT22;6291;48.924;12.204;2023-06-04T20:15:49;19.90;99.90
12452;DHT22;6291;48.924;12.204;2023-06-04T20:20:53;19.90;99.90
12452;DHT22;6291;48.924;12.204;2023-06-04T20:25:58;19.80;99.90
12452;DHT22;6291;48.924;12.204;2023-06-04T20:31:01;23.50;99.90
12452;DHT22;6291;48.924;12.204;2023-06-04T20:36:05;19.90;99.90
12452;DHT22;6291;48.924;12.204;2023-06-04T20:41:12;19.70;99.90
12452;DHT22;6291;48.924;12.204;2023-06-04T20:46:15;19.60;99.90
12452;DHT22;6291;48.924;12.204;2023-06-04T20:51:19;19.50;99.90
12452;DHT22;6291;48.924;12.204;2023-06-04T20:56:24;19.40;99.90
12452;DHT22;6291;48.924;12.204;2023-06-04T21:01:29;19.40;99.90
12452;DHT22;6291;48.924;12.204;2023-06-04T21:06:32;19.50;99.90
12452;DHT22;6291;48.924;12.204;2023-06-04T21:11:37;19.30;99.90
12452;DHT22;6291;48.924;12.204;2023-06-04T21:16:41;19.30;99.90
12452;DHT22;6291;48.924;12.204;2023-06-04T21:21:45;19.10;99.90
12452;DHT22;6291;48.924;12.204;2023-06-04T21:26:49;19.20;99.90
12452;DHT22;6291;48.924;12.204;2023-06-04T21:31:53;19.00;99.90
12452;DHT22;6291;48.924;12.204;2023-06-04T21:36:56;18.90;99.90
12452;DHT22;6291;48.924;12.204;2023-06-04T21:42:01;18.90;99.90
12452;DHT22;6291;48.924;12.204;2023-06-04T21:47:04;18.70;99.90
12452;DHT22;6291;48.924;12.204;2023-06-04T21:52:08;18.70;99.90
12452;DHT22;6291;48.924;12.204;2023-06-04T21:57:27;18.70;99.90
12452;DHT22;6291;48.924;12.204;2023-06-04T22:02:30;18.70;99.90
12452;DHT22;6291;48.924;12.204;2023-06-04T22:07:34;18.70;99.90
12452;DHT22;6291;48.924;12.204;2023-06-04T22:12:39;18.70;99.90
12452;DHT22;6291;48.924;12.204;2023-06-04T22:17:43;18.60;99.90
12452;DHT22;6291;48.924;12.204;2023-06-04T22:22:46;18.50;99.90
12452;DHT22;6291;48.924;12.204;2023-06-04T22:27:51;18.40;99.90
12452;DHT22;6291;48.924;12.204;2023-06-04T22:32:54;20.10;99.90
12452;DHT22;6291;48.924;12.204;2023-06-04T22:37:58;18.30;99.90
12452;DHT22;6291;48.924;12.204;2023-06-04T22:43:03;18.20;99.90
12452;DHT22;6291;48.924;12.204;2023-06-04T22:48:07;18.10;99.90
12452;DHT22;6291;48.924;12.204;2023-06-04T22:53:11;17.90;99.90
12452;DHT22;6291;48.924;12.204;2023-06-04T22:58:16;17.80;99.90
12452;DHT22;6291;48.924;12.204;2023-06-04T23:03:20;17.70;99.90
12452;DHT22;6291;48.924;12.204;2023-06-04T23:08:27;17.50;99.90
12452;DHT22;6291;48.924;12.204;2023-06-04T23:13:32;17.40;99.90
12452;DHT22;6291;48.924;12.204;2023-06-04T23:18:35;17.30;99.90
12452;DHT22;6291;48.924;12.204;2023-06-04T23:23:38;17.30;99.90
12452;DHT22;6291;48.924;12.204;2023-06-04T23:28:43;17.30;99.90
12452;DHT22;6291;48.924;12.204;2023-06-04T23:33:47;17.10;99.90
12452;DHT22;6291;48.924;12.204;2023-06-04T23:38:50;16.90;99.90
12452;DHT22;6291;48.924;12.204;2023-06-04T23:43:55;16.90;99.90
12452;DHT22;6291;48.924;12.204;2023-06-04T23:48:58;16.90;99.90
12452;DHT22;6291;48.924;12.204;2023-06-04T23:54:02;17.00;99.90
12452;DHT22;6291;48.924;12.204;2023-06-04T23:59:07;17.10;99.90
